Time,TemperatureF,DewpointF,PressureIn,WindDirection,WindDirectionDegrees,WindSpeedMPH,WindSpeedGustMPH,Humidity,HourlyPrecipIn,Conditions,Clouds,dailyrainin,SoftwareType,DateUTC
2013-03-23 00:05:00,42.8,38.3,29.90,NNE,30,0.0,0.0,84,0.00,,---,0.34,VWS V14.00,2013-03-23 05:05:00,
2013-03-23 00:10:00,42.7,38.2,29.90,NNE,30,0.0,0.0,84,0.00,,---,0.34,VWS V14.00,2013-03-23 05:10:00,
2013-03-23 00:15:00,42.7,38.2,29.90,NNE,30,0.0,0.0,84,0.00,,---,0.34,VWS V14.00,2013-03-23 05:15:00,
2013-03-23 00:16:00,41.8,37.6,29.89,North,6,7.0,9.0,85,0.00,,---,0.00,VWS V14.00,2013-03-23 05:16:00,
2013-03-23 00:20:00,42.7,38.2,29.90,NNE,31,0.0,0.0,84,0.00,,---,0.34,VWS V14.00,2013-03-23 05:20:00,
2013-03-23 00:25:00,42.7,38.2,29.90,NNE,25,4.0,4.0,84,0.00,,---,0.34,VWS V14.00,2013-03-23 05:25:00,
2013-03-23 00:30:00,42.6,38.1,29.90,NE,37,3.0,6.0,84,0.00,,---,0.34,VWS V14.00,2013-03-23 05:30:00,
2013-03-23 00:35:00,42.5,38.0,29.90,NNE,31,6.0,9.0,84,0.00,,---,0.34,VWS V14.00,2013-03-23 05:35:00,
2013-03-23 00:40:00,42.4,37.9,29.90,NNE,21,0.0,6.0,84,0.00,,---,0.34,VWS V14.00,2013-03-23 05:40:00,
2013-03-23 00:45:00,42.4,37.9,29.90,NNE,30,0.0,0.0,84,0.00,,---,0.34,VWS V14.00,2013-03-23 05:45:00,
2013-03-23 00:50:00,42.4,37.9,29.90,NNE,20,0.0,0.0,84,0.00,,---,0.34,VWS V14.00,2013-03-23 05:50:00,
2013-03-23 00:55:00,42.3,37.8,29.90,NNE,13,0.0,10.0,84,0.00,,---,0.34,VWS V14.00,2013-03-23 05:55:00,
2013-03-23 00:58:00,41.4,37.5,29.88,North,10,0.0,0.0,86,0.00,,---,0.00,VWS V14.00,2013-03-23 05:58:00,
2013-03-23 01:00:00,42.2,38.0,29.90,NNE,13,2.0,11.0,85,0.00,,---,0.34,VWS V14.00,2013-03-23 06:00:00,
2013-03-23 01:06:00,41.4,37.5,29.87,North,11,0.0,7.0,86,0.00,,---,0.00,VWS V14.00,2013-03-23 06:06:00,
2013-03-23 01:07:00,42.1,37.9,29.90,NE,34,0.0,5.0,85,0.00,,---,0.34,VWS V14.00,2013-03-23 06:07:00,
2013-03-23 01:13:00,42.0,37.8,29.90,NNE,31,4.0,11.0,85,0.00,,---,0.00,VWS V14.00,2013-03-23 06:13:00,
2013-03-23 01:14:00,41.4,37.5,29.87,NNE,15,2.0,7.0,86,0.00,,---,0.00,VWS V14.00,2013-03-23 06:14:00,
2013-03-23 01:18:00,41.9,37.7,29.90,NE,41,2.0,12.0,85,0.00,,---,0.00,VWS V14.00,2013-03-23 06:18:00,
2013-03-23 01:22:00,41.3,37.4,29.87,NNE,25,0.0,0.0,86,0.00,,---,0.00,VWS V14.00,2013-03-23 06:22:00,
2013-03-23 01:24:00,41.9,37.7,29.90,NNE,15,0.0,4.0,85,0.00,,---,0.00,VWS V14.00,2013-03-23 06:24:00,
2013-03-23 01:26:00,41.3,37.4,29.87,North,0,0.0,3.0,86,0.00,,---,0.00,VWS V14.00,2013-03-23 06:26:00,
2013-03-23 01:27:00,41.3,37.4,29.87,North,359,0.0,3.0,86,0.00,,---,0.00,VWS V14.00,2013-03-23 06:27:00,
2013-03-23 01:28:00,41.3,37.4,29.87,North,3,0.0,4.0,86,0.00,,---,0.00,VWS V14.00,2013-03-23 06:28:00,
2013-03-23 01:29:00,41.7,37.5,29.89,NE,44,4.0,10.0,85,0.00,,---,0.00,VWS V14.00,2013-03-23 06:29:00,
2013-03-23 01:34:00,41.6,37.7,29.89,NNE,22,0.0,6.0,86,0.00,,---,0.00,VWS V14.00,2013-03-23 06:34:00,
2013-03-23 01:40:00,41.6,37.7,29.88,NE,40,0.0,6.0,86,0.00,,---,0.00,VWS V14.00,2013-03-23 06:40:00,
2013-03-23 01:44:00,41.1,37.5,29.87,NNE,17,0.0,7.0,87,0.00,,---,0.00,VWS V14.00,2013-03-23 06:44:00,
2013-03-23 01:46:00,41.1,37.5,29.86,NNE,33,3.0,9.0,87,0.00,,---,0.00,VWS V14.00,2013-03-23 06:46:00,
2013-03-23 01:47:00,41.5,37.6,29.88,NNE,21,0.0,0.0,86,0.00,,---,0.00,VWS V14.00,2013-03-23 06:47:00,
2013-03-23 01:52:00,41.5,37.6,29.88,NNE,20,0.0,0.0,86,0.00,,---,0.00,VWS V14.00,2013-03-23 06:52:00,
2013-03-23 01:58:00,41.5,37.6,29.88,NNE,13,3.0,7.0,86,0.00,,---,0.00,VWS V14.00,2013-03-23 06:58:00,
2013-03-23 02:03:00,41.4,37.5,29.88,NNE,15,0.0,2.0,86,0.00,,---,0.00,VWS V14.00,2013-03-23 07:03:00,
2013-03-23 02:09:00,41.4,37.5,29.88,North,9,0.0,0.0,86,0.00,,---,0.00,VWS V14.00,2013-03-23 07:09:00,
2013-03-23 02:14:00,41.4,37.5,29.87,NE,51,0.0,7.0,86,0.00,,---,0.00,VWS V14.00,2013-03-23 07:14:00,
2013-03-23 02:19:00,41.4,37.5,29.87,North,7,0.0,0.0,86,0.00,,---,0.00,VWS V14.00,2013-03-23 07:19:00,
2013-03-23 02:25:00,41.4,37.5,29.87,NE,34,3.0,10.0,86,0.00,,---,0.00,VWS V14.00,2013-03-23 07:25:00,
2013-03-23 02:30:00,41.3,37.4,29.87,NNE,25,0.0,0.0,86,0.00,,---,0.00,VWS V14.00,2013-03-23 07:30:00,
2013-03-23 02:35:00,41.3,37.4,29.87,NNE,28,3.0,6.0,86,0.00,,---,0.00,VWS V14.00,2013-03-23 07:35:00,
2013-03-23 02:40:00,41.3,37.4,29.87,North,3,0.0,0.0,86,0.00,,---,0.00,VWS V14.00,2013-03-23 07:40:00,
2013-03-23 02:45:00,41.3,37.4,29.87,NNE,24,0.0,5.0,86,0.00,,---,0.00,VWS V14.00,2013-03-23 07:45:00,
2013-03-23 02:50:00,41.2,37.3,29.87,NNE,23,6.0,7.0,86,0.00,,---,0.00,VWS V14.00,2013-03-23 07:50:00,
2013-03-23 02:55:00,41.1,37.5,29.86,NNE,19,0.0,4.0,87,0.00,,---,0.00,VWS V14.00,2013-03-23 07:55:00,
2013-03-23 03:00:00,41.0,37.4,29.86,NNE,26,5.0,6.0,87,0.00,,---,0.00,VWS V14.00,2013-03-23 08:00:00,
2013-03-23 03:05:00,40.9,37.3,29.86,NNE,32,0.0,0.0,87,0.00,,---,0.00,VWS V14.00,2013-03-23 08:05:00,
2013-03-23 03:10:00,40.9,37.3,29.86,North,11,2.0,6.0,87,0.00,,---,0.00,VWS V14.00,2013-03-23 08:10:00,
2013-03-23 03:15:00,40.9,37.3,29.86,North,1,0.0,0.0,87,0.00,,---,0.00,VWS V14.00,2013-03-23 08:15:00,
2013-03-23 03:20:00,40.8,37.2,29.86,NNE,19,0.0,7.0,87,0.00,,---,0.00,VWS V14.00,2013-03-23 08:20:00,
2013-03-23 03:26:00,40.8,37.2,29.85,NE,37,8.0,9.0,87,0.00,,---,0.00,VWS V14.00,2013-03-23 08:26:00,
2013-03-23 03:32:00,40.7,37.1,29.85,NE,37,0.0,3.0,87,0.00,,---,0.00,VWS V14.00,2013-03-23 08:32:00,
2013-03-23 03:37:00,40.7,37.1,29.85,NE,39,1.0,10.0,87,0.00,,---,0.00,VWS V14.00,2013-03-23 08:37:00,
2013-03-23 03:43:00,40.6,37.0,29.85,NNE,27,0.0,0.0,87,0.00,,---,0.00,VWS V14.00,2013-03-23 08:43:00,
2013-03-23 03:49:00,40.6,37.0,29.85,NE,39,0.0,4.0,87,0.00,,---,0.00,VWS V14.00,2013-03-23 08:49:00,
2013-03-23 03:54:00,40.6,37.0,29.85,NNE,25,0.0,5.0,87,0.00,,---,0.00,VWS V14.00,2013-03-23 08:54:00,
2013-03-23 03:59:00,40.6,37.0,29.85,North,11,0.0,0.0,87,0.00,,---,0.00,VWS V14.00,2013-03-23 08:59:00,
2013-03-23 04:04:00,40.5,36.9,29.85,NNE,32,0.0,6.0,87,0.00,,---,0.00,VWS V14.00,2013-03-23 09:04:00,
2013-03-23 04:09:00,40.5,36.9,29.85,NE,49,0.0,6.0,87,0.00,,---,0.00,VWS V14.00,2013-03-23 09:09:00,
2013-03-23 04:14:00,40.4,36.8,29.85,NE,49,0.0,5.0,87,0.00,,---,0.00,VWS V14.00,2013-03-23 09:14:00,
2013-03-23 04:20:00,40.4,36.8,29.85,NNE,18,0.0,7.0,87,0.00,,---,0.00,VWS V14.00,2013-03-23 09:20:00,
2013-03-23 04:25:00,40.4,36.8,29.85,NNE,19,5.0,6.0,87,0.00,,---,0.00,VWS V14.00,2013-03-23 09:25:00,
2013-03-23 04:30:00,40.4,36.8,29.85,North,2,0.0,0.0,87,0.00,,---,0.00,VWS V14.00,2013-03-23 09:30:00,
2013-03-23 04:35:00,40.4,36.8,29.85,North,2,1.0,2.0,87,0.00,,---,0.00,VWS V14.00,2013-03-23 09:35:00,
2013-03-23 04:40:00,40.4,36.8,29.85,North,2,0.0,0.0,87,0.00,,---,0.00,VWS V14.00,2013-03-23 09:40:00,
2013-03-23 04:45:00,40.4,36.8,29.85,North,3,0.0,4.0,87,0.00,,---,0.00,VWS V14.00,2013-03-23 09:45:00,
2013-03-23 04:50:00,40.3,36.8,29.85,North,3,0.0,0.0,87,0.00,,---,0.00,VWS V14.00,2013-03-23 09:50:00,
2013-03-23 04:55:00,40.2,36.7,29.84,NNE,21,3.0,6.0,87,0.00,,---,0.00,VWS V14.00,2013-03-23 09:55:00,
2013-03-23 05:01:00,40.2,36.7,29.84,NE,41,0.0,0.0,87,0.00,,---,0.00,VWS V14.00,2013-03-23 10:01:00,
2013-03-23 05:06:00,40.2,36.7,29.84,NE,41,0.0,0.0,87,0.00,,---,0.00,VWS V14.00,2013-03-23 10:06:00,
2013-03-23 05:11:00,40.2,36.7,29.85,NE,40,6.0,6.0,87,0.00,,---,0.00,VWS V14.00,2013-03-23 10:11:00,
2013-03-23 05:16:00,40.1,36.5,29.85,NNE,27,0.0,0.0,87,0.00,,---,0.00,VWS V14.00,2013-03-23 10:16:00,
2013-03-23 05:22:00,40.1,36.5,29.85,North,11,0.0,8.0,87,0.00,,---,0.00,VWS V14.00,2013-03-23 10:22:00,
2013-03-23 05:28:00,40.0,36.5,29.83,ENE,74,0.0,6.0,87,0.00,,---,0.00,VWS V14.00,2013-03-23 10:28:00,
2013-03-23 05:33:00,40.0,36.5,29.83,NE,44,3.0,4.0,87,0.00,,---,0.00,VWS V14.00,2013-03-23 10:33:00,
2013-03-23 05:39:00,39.9,36.3,29.83,NNE,23,0.0,2.0,87,0.00,,---,0.00,VWS V14.00,2013-03-23 10:39:00,
2013-03-23 05:44:00,39.9,36.6,29.84,NNE,25,0.0,5.0,88,0.00,,---,0.00,VWS V14.00,2013-03-23 10:44:00,
2013-03-23 05:49:00,39.9,36.6,29.84,NE,34,0.0,4.0,88,0.00,,---,0.00,VWS V14.00,2013-03-23 10:49:00,
2013-03-23 05:54:00,39.8,36.5,29.84,NNE,30,0.0,3.0,88,0.00,,---,0.00,VWS V14.00,2013-03-23 10:54:00,
2013-03-23 05:59:00,39.8,36.5,29.85,NNE,25,0.0,0.0,88,0.00,,---,0.00,VWS V14.00,2013-03-23 10:59:00,
2013-03-23 06:05:00,39.8,36.8,29.85,NE,50,0.0,0.0,89,0.00,,---,0.00,VWS V14.00,2013-03-23 11:05:00,
2013-03-23 06:11:00,39.8,36.8,29.85,NE,42,5.0,5.0,89,0.00,,---,0.00,VWS V14.00,2013-03-23 11:11:00,
2013-03-23 06:17:00,39.6,36.6,29.85,NNE,24,0.0,0.0,89,0.00,,---,0.00,VWS V14.00,2013-03-23 11:17:00,
2013-03-23 06:22:00,39.5,36.8,29.85,NNE,30,0.0,0.0,90,0.00,,---,0.00,VWS V14.00,2013-03-23 11:22:00,
2013-03-23 06:27:00,39.5,37.1,29.85,NNE,32,0.0,0.0,91,0.00,,---,0.00,VWS V14.00,2013-03-23 11:27:00,
2013-03-23 06:33:00,39.4,37.0,29.85,NE,40,0.0,0.0,91,0.00,,---,0.00,VWS V14.00,2013-03-23 11:33:00,
2013-03-23 06:38:00,39.4,37.0,29.85,NE,41,0.0,0.0,91,0.00,,---,0.00,VWS V14.00,2013-03-23 11:38:00,
2013-03-23 06:43:00,39.3,37.2,29.85,NE,39,4.0,5.0,92,0.00,,---,0.00,VWS V14.00,2013-03-23 11:43:00,
2013-03-23 06:48:00,39.2,37.1,29.85,NE,38,0.0,0.0,92,0.00,,---,0.00,VWS V14.00,2013-03-23 11:48:00,
2013-03-23 06:54:00,39.1,37.0,29.85,NE,39,0.0,0.0,92,0.00,,---,0.00,VWS V14.00,2013-03-23 11:54:00,
2013-03-23 06:59:00,39.1,37.2,29.86,NNE,31,0.0,0.0,93,0.00,,---,0.00,VWS V14.00,2013-03-23 11:59:00,
2013-03-23 07:04:00,39.1,37.2,29.86,NNE,31,0.0,0.0,93,0.00,,---,0.00,VWS V14.00,2013-03-23 12:04:00,
2013-03-23 07:09:00,39.1,37.2,29.86,NNE,33,0.0,0.0,93,0.00,,---,0.00,VWS V14.00,2013-03-23 12:09:00,
2013-03-23 07:14:00,39.0,37.2,29.87,NNE,33,0.0,0.0,93,0.00,,---,0.00,VWS V14.00,2013-03-23 12:14:00,
2013-03-23 07:19:00,39.0,37.4,29.87,NE,35,0.0,5.0,94,0.00,,---,0.00,VWS V14.00,2013-03-23 12:19:00,
2013-03-23 07:25:00,39.0,37.4,29.87,NE,40,0.0,0.0,94,0.00,,---,0.00,VWS V14.00,2013-03-23 12:25:00,
2013-03-23 07:30:00,39.0,37.4,29.87,NNE,30,0.0,0.0,94,0.00,,---,0.00,VWS V14.00,2013-03-23 12:30:00,
2013-03-23 07:35:00,39.0,37.4,29.87,NNE,30,0.0,0.0,94,0.00,,---,0.00,VWS V14.00,2013-03-23 12:35:00,
2013-03-23 07:40:00,39.1,37.5,29.87,NNE,27,0.0,0.0,94,0.00,,---,0.00,VWS V14.00,2013-03-23 12:40:00,
2013-03-23 07:45:00,39.0,37.4,29.87,NNE,15,0.0,0.0,94,0.00,,---,0.00,VWS V14.00,2013-03-23 12:45:00,
2013-03-23 07:51:00,39.0,37.4,29.87,NNE,21,0.0,0.0,94,0.00,,---,0.00,VWS V14.00,2013-03-23 12:51:00,
2013-03-23 07:56:00,39.1,37.5,29.86,NE,37,0.0,5.0,94,0.00,,---,0.00,VWS V14.00,2013-03-23 12:56:00,
2013-03-23 08:01:00,39.0,37.4,29.86,NNE,24,0.0,0.0,94,0.00,,---,0.00,VWS V14.00,2013-03-23 13:01:00,
2013-03-23 08:06:00,39.0,37.7,29.86,ENE,68,0.0,0.0,95,0.00,,---,0.00,VWS V14.00,2013-03-23 13:06:00,
2013-03-23 08:11:00,39.0,37.7,29.86,NE,45,0.0,0.0,95,0.00,,---,0.00,VWS V14.00,2013-03-23 13:11:00,
2013-03-23 08:16:00,39.0,37.7,29.86,NNE,25,0.0,0.0,95,0.00,,---,0.00,VWS V14.00,2013-03-23 13:16:00,
2013-03-23 08:22:00,39.1,37.8,29.86,NNE,32,4.0,4.0,95,0.00,,---,0.00,VWS V14.00,2013-03-23 13:22:00,
2013-03-23 08:27:00,39.1,37.8,29.86,NE,52,0.0,0.0,95,0.00,,---,0.00,VWS V14.00,2013-03-23 13:27:00,
2013-03-23 08:32:00,39.0,37.7,29.86,NNE,18,0.0,1.0,95,0.01,,---,0.01,VWS V14.00,2013-03-23 13:32:00,
2013-03-23 08:38:00,39.1,37.8,29.86,NE,35,0.0,0.0,95,0.01,,---,0.01,VWS V14.00,2013-03-23 13:38:00,
2013-03-23 08:43:00,39.0,37.7,29.86,NNE,23,0.0,7.0,95,0.01,,---,0.01,VWS V14.00,2013-03-23 13:43:00,
2013-03-23 08:49:00,39.1,37.8,29.86,ENE,67,0.0,6.0,95,0.01,,---,0.01,VWS V14.00,2013-03-23 13:49:00,
2013-03-23 08:54:00,39.0,37.7,29.86,NNE,30,0.0,0.0,95,0.01,,---,0.01,VWS V14.00,2013-03-23 13:54:00,
2013-03-23 08:59:00,39.1,37.8,29.87,ENE,73,0.0,0.0,95,0.01,,---,0.01,VWS V14.00,2013-03-23 13:59:00,
2013-03-23 09:04:00,39.2,37.9,29.87,NE,50,0.0,0.0,95,0.01,,---,0.01,VWS V14.00,2013-03-23 14:04:00,
2013-03-23 09:10:00,39.2,37.9,29.87,NNE,18,0.0,0.0,95,0.01,,---,0.01,VWS V14.00,2013-03-23 14:10:00,
2013-03-23 09:16:00,39.2,37.9,29.87,NNE,28,0.0,0.0,95,0.01,,---,0.01,VWS V14.00,2013-03-23 14:16:00,
2013-03-23 09:21:00,39.2,38.2,29.87,NNE,28,0.0,0.0,96,0.01,,---,0.01,VWS V14.00,2013-03-23 14:21:00,
2013-03-23 09:26:00,39.3,38.0,29.87,NE,35,0.0,0.0,95,0.01,,---,0.01,VWS V14.00,2013-03-23 14:26:00,
2013-03-23 09:32:00,39.4,38.1,29.87,ENE,69,0.0,0.0,95,0.00,,---,0.01,VWS V14.00,2013-03-23 14:32:00,
2013-03-23 09:38:00,39.5,38.5,29.87,NE,43,0.0,0.0,96,0.00,,---,0.01,VWS V14.00,2013-03-23 14:38:00,
2013-03-23 09:43:00,39.6,38.6,29.85,NE,40,0.0,3.0,96,0.00,,---,0.01,VWS V14.00,2013-03-23 14:43:00,
2013-03-23 09:48:00,39.7,38.7,29.85,North,5,0.0,12.0,96,0.00,,---,0.01,VWS V14.00,2013-03-23 14:48:00,
2013-03-23 09:54:00,39.6,38.6,29.85,NE,42,0.0,4.0,96,0.00,,---,0.01,VWS V14.00,2013-03-23 14:54:00,
2013-03-23 09:59:00,39.7,38.7,29.86,NNE,33,3.0,4.0,96,0.00,,---,0.01,VWS V14.00,2013-03-23 14:59:00,
2013-03-23 10:04:00,39.8,38.8,29.86,North,359,0.0,6.0,96,0.00,,---,0.01,VWS V14.00,2013-03-23 15:04:00,
2013-03-23 10:09:00,39.7,38.4,29.86,NNE,19,0.0,0.0,95,0.00,,---,0.01,VWS V14.00,2013-03-23 15:09:00,
2013-03-23 10:14:00,39.8,38.8,29.86,NE,42,2.0,6.0,96,0.00,,---,0.01,VWS V14.00,2013-03-23 15:14:00,
2013-03-23 10:19:00,39.8,38.8,29.86,NNE,15,0.0,0.0,96,0.00,,---,0.01,VWS V14.00,2013-03-23 15:19:00,
2013-03-23 10:24:00,39.9,38.8,29.86,NE,53,3.0,3.0,96,0.00,,---,0.01,VWS V14.00,2013-03-23 15:24:00,
2013-03-23 10:29:00,40.0,39.0,29.86,East,88,0.0,4.0,96,0.00,,---,0.01,VWS V14.00,2013-03-23 15:29:00,
2013-03-23 10:34:00,40.0,39.0,29.86,NE,37,0.0,5.0,96,0.00,,---,0.01,VWS V14.00,2013-03-23 15:34:00,
2013-03-23 10:39:00,40.0,39.0,29.86,ENE,70,0.0,5.0,96,0.00,,---,0.01,VWS V14.00,2013-03-23 15:39:00,
2013-03-23 10:44:00,40.1,39.0,29.85,ENE,66,7.0,7.0,96,0.00,,---,0.01,VWS V14.00,2013-03-23 15:44:00,
2013-03-23 10:49:00,40.1,39.0,29.85,NE,41,0.0,7.0,96,0.00,,---,0.01,VWS V14.00,2013-03-23 15:49:00,
2013-03-23 10:54:00,40.2,39.2,29.85,NE,34,0.0,0.0,96,0.00,,---,0.01,VWS V14.00,2013-03-23 15:54:00,
2013-03-23 10:59:00,40.3,39.2,29.84,ENE,71,0.0,0.0,96,0.00,,---,0.01,VWS V14.00,2013-03-23 15:59:00,
2013-03-23 11:05:00,40.3,39.2,29.84,East,81,0.0,0.0,96,0.00,,---,0.01,VWS V14.00,2013-03-23 16:05:00,
2013-03-23 11:10:00,40.4,39.3,29.85,NNE,27,0.0,5.0,96,0.00,,---,0.01,VWS V14.00,2013-03-23 16:10:00,
2013-03-23 11:16:00,40.4,39.3,29.85,East,83,0.0,0.0,96,0.00,,---,0.01,VWS V14.00,2013-03-23 16:16:00,
2013-03-23 11:21:00,40.4,39.3,29.85,ENE,72,0.0,0.0,96,0.00,,---,0.01,VWS V14.00,2013-03-23 16:21:00,
2013-03-23 11:26:00,40.6,39.5,29.86,East,83,0.0,0.0,96,0.00,,---,0.01,VWS V14.00,2013-03-23 16:26:00,
2013-03-23 11:32:00,40.7,39.7,29.86,NNE,31,3.0,3.0,96,0.00,,---,0.01,VWS V14.00,2013-03-23 16:32:00,
2013-03-23 11:37:00,40.8,39.8,29.86,NE,34,0.0,0.0,96,0.00,,---,0.01,VWS V14.00,2013-03-23 16:37:00,
2013-03-23 11:42:00,40.7,39.7,29.87,NNE,29,0.0,0.0,96,0.00,,---,0.01,VWS V14.00,2013-03-23 16:42:00,
2013-03-23 11:48:00,40.6,39.5,29.87,NNE,29,0.0,0.0,96,0.00,,---,0.01,VWS V14.00,2013-03-23 16:48:00,
2013-03-23 11:53:00,40.7,39.7,29.87,NNE,29,0.0,0.0,96,0.00,,---,0.01,VWS V14.00,2013-03-23 16:53:00,
2013-03-23 11:58:00,40.7,39.7,29.87,NNE,32,0.0,0.0,96,0.00,,---,0.01,VWS V14.00,2013-03-23 16:58:00,
2013-03-23 12:03:00,40.7,39.7,29.87,NE,34,0.0,5.0,96,0.00,,---,0.01,VWS V14.00,2013-03-23 17:03:00,
2013-03-23 12:08:00,40.7,39.7,29.87,NE,47,4.0,4.0,96,0.00,,---,0.01,VWS V14.00,2013-03-23 17:08:00,
2013-03-23 12:13:00,40.7,39.7,29.86,NNE,25,7.0,8.0,96,0.00,,---,0.01,VWS V14.00,2013-03-23 17:13:00,
2013-03-23 12:18:00,40.7,39.7,29.86,NNE,32,0.0,5.0,96,0.00,,---,0.01,VWS V14.00,2013-03-23 17:18:00,
2013-03-23 12:23:00,40.8,39.8,29.86,NNE,25,0.0,0.0,96,0.00,,---,0.01,VWS V14.00,2013-03-23 17:23:00,
2013-03-23 12:28:00,40.8,39.8,29.86,NNE,23,0.0,0.0,96,0.00,,---,0.01,VWS V14.00,2013-03-23 17:28:00,
2013-03-23 12:34:00,41.1,40.0,29.86,NE,36,0.0,0.0,96,0.00,,---,0.01,VWS V14.00,2013-03-23 17:34:00,
2013-03-23 12:40:00,41.3,40.2,29.83,ENE,68,0.0,0.0,96,0.00,,---,0.01,VWS V14.00,2013-03-23 17:40:00,
2013-03-23 12:45:00,41.3,40.2,29.83,ESE,113,0.0,5.0,96,0.00,,---,0.01,VWS V14.00,2013-03-23 17:45:00,
2013-03-23 12:50:00,41.4,40.3,29.83,East,93,0.0,0.0,96,0.00,,---,0.01,VWS V14.00,2013-03-23 17:50:00,
2013-03-23 12:55:00,41.3,40.2,29.84,SSE,165,0.0,0.0,96,0.00,,---,0.01,VWS V14.00,2013-03-23 17:55:00,
2013-03-23 13:00:00,41.3,40.2,29.84,SE,128,0.0,0.0,96,0.00,,---,0.01,VWS V14.00,2013-03-23 18:00:00,
2013-03-23 13:05:00,41.4,40.3,29.84,East,90,0.0,0.0,96,0.00,,---,0.01,VWS V14.00,2013-03-23 18:05:00,
2013-03-23 13:10:00,41.5,40.5,29.82,East,90,0.0,0.0,96,0.00,,---,0.01,VWS V14.00,2013-03-23 18:10:00,
2013-03-23 13:16:00,41.5,40.5,29.82,East,89,0.0,0.0,96,0.00,,---,0.01,VWS V14.00,2013-03-23 18:16:00,
2013-03-23 13:21:00,41.6,40.5,29.82,East,89,0.0,0.0,96,0.00,,---,0.01,VWS V14.00,2013-03-23 18:21:00,
2013-03-23 13:27:00,41.5,40.5,29.84,East,88,0.0,0.0,96,0.00,,---,0.01,VWS V14.00,2013-03-23 18:27:00,
2013-03-23 13:32:00,41.5,40.5,29.84,East,88,0.0,0.0,96,0.00,,---,0.01,VWS V14.00,2013-03-23 18:32:00,
2013-03-23 13:37:00,41.6,40.5,29.84,East,89,0.0,0.0,96,0.00,,---,0.01,VWS V14.00,2013-03-23 18:37:00,
2013-03-23 13:43:00,41.8,40.8,29.83,East,89,0.0,0.0,96,0.00,,---,0.01,VWS V14.00,2013-03-23 18:43:00,
2013-03-23 13:48:00,41.9,40.8,29.83,East,88,0.0,0.0,96,0.00,,---,0.01,VWS V14.00,2013-03-23 18:48:00,
2013-03-23 13:53:00,42.0,40.9,29.83,East,88,0.0,0.0,96,0.00,,---,0.01,VWS V14.00,2013-03-23 18:53:00,
2013-03-23 13:59:00,42.2,41.1,29.81,East,82,0.0,5.0,96,0.00,,---,0.01,VWS V14.00,2013-03-23 18:59:00,
2013-03-23 14:05:00,42.3,41.2,29.81,ENE,70,0.0,0.0,96,0.00,,---,0.01,VWS V14.00,2013-03-23 19:05:00,
2013-03-23 14:10:00,42.2,41.1,29.79,NNE,31,0.0,0.0,96,0.01,,---,0.02,VWS V14.00,2013-03-23 19:10:00,
2013-03-23 14:15:00,42.1,41.0,29.79,NNE,16,0.0,5.0,96,0.01,,---,0.02,VWS V14.00,2013-03-23 19:15:00,
2013-03-23 14:20:00,42.0,40.9,29.79,NNE,27,0.0,0.0,96,0.01,,---,0.02,VWS V14.00,2013-03-23 19:20:00,
2013-03-23 14:25:00,42.0,40.9,29.80,NNE,27,0.0,0.0,96,0.01,,---,0.02,VWS V14.00,2013-03-23 19:25:00,
2013-03-23 14:30:00,42.0,40.9,29.80,NNE,24,0.0,0.0,96,0.01,,---,0.02,VWS V14.00,2013-03-23 19:30:00,
2013-03-23 14:35:00,41.9,40.8,29.80,NNE,24,0.0,0.0,96,0.01,,---,0.02,VWS V14.00,2013-03-23 19:35:00,
2013-03-23 14:41:00,41.9,40.8,29.79,NNE,24,0.0,0.0,96,0.01,,---,0.02,VWS V14.00,2013-03-23 19:41:00,
2013-03-23 14:46:00,42.0,40.9,29.79,NNE,24,0.0,0.0,96,0.01,,---,0.02,VWS V14.00,2013-03-23 19:46:00,
2013-03-23 14:52:00,42.0,40.9,29.79,NNE,27,0.0,0.0,96,0.01,,---,0.02,VWS V14.00,2013-03-23 19:52:00,
2013-03-23 14:57:00,42.0,40.9,29.77,NNE,27,0.0,0.0,96,0.01,,---,0.02,VWS V14.00,2013-03-23 19:57:00,
2013-03-23 15:03:00,42.2,41.1,29.77,North,1,0.0,0.0,96,0.01,,---,0.02,VWS V14.00,2013-03-23 20:03:00,
2013-03-23 15:08:00,42.2,41.1,29.77,North,1,0.0,0.0,96,0.01,,---,0.02,VWS V14.00,2013-03-23 20:08:00,
2013-03-23 15:13:00,42.3,41.2,29.77,North,1,0.0,0.0,96,0.00,,---,0.02,VWS V14.00,2013-03-23 20:13:00,
2013-03-23 15:18:00,42.4,41.3,29.77,NNE,17,0.0,0.0,96,0.00,,---,0.02,VWS V14.00,2013-03-23 20:18:00,
2013-03-23 15:24:00,42.3,41.2,29.77,NNE,17,0.0,0.0,96,0.00,,---,0.02,VWS V14.00,2013-03-23 20:24:00,
2013-03-23 15:29:00,42.3,41.2,29.77,NNE,17,0.0,0.0,96,0.00,,---,0.02,VWS V14.00,2013-03-23 20:29:00,
2013-03-23 15:35:00,42.3,41.0,29.77,NNE,17,0.0,0.0,95,0.00,,---,0.02,VWS V14.00,2013-03-23 20:35:00,
2013-03-23 15:40:00,42.3,41.0,29.76,NNE,17,0.0,0.0,95,0.00,,---,0.02,VWS V14.00,2013-03-23 20:40:00,
2013-03-23 15:45:00,42.3,41.2,29.76,NNE,18,0.0,0.0,96,0.00,,---,0.02,VWS V14.00,2013-03-23 20:45:00,
2013-03-23 15:50:00,42.5,41.4,29.76,NE,45,0.0,0.0,96,0.00,,---,0.02,VWS V14.00,2013-03-23 20:50:00,
2013-03-23 15:55:00,42.6,41.5,29.74,NE,39,0.0,0.0,96,0.00,,---,0.02,VWS V14.00,2013-03-23 20:55:00,
2013-03-23 16:00:00,42.6,41.5,29.74,NE,39,0.0,0.0,96,0.00,,---,0.02,VWS V14.00,2013-03-23 21:00:00,
2013-03-23 16:05:00,42.6,41.3,29.74,NNE,30,0.0,0.0,95,0.00,,---,0.02,VWS V14.00,2013-03-23 21:05:00,
2013-03-23 16:10:00,42.8,41.7,29.73,East,90,0.0,0.0,96,0.00,,---,0.02,VWS V14.00,2013-03-23 21:10:00,
2013-03-23 16:16:00,42.9,41.8,29.73,East,89,0.0,0.0,96,0.00,,---,0.02,VWS V14.00,2013-03-23 21:16:00,
2013-03-23 16:21:00,42.9,41.8,29.73,East,89,0.0,0.0,96,0.00,,---,0.02,VWS V14.00,2013-03-23 21:21:00,
2013-03-23 16:27:00,42.9,41.8,29.74,East,89,0.0,0.0,96,0.00,,---,0.02,VWS V14.00,2013-03-23 21:27:00,
2013-03-23 16:32:00,42.8,41.7,29.74,East,89,0.0,0.0,96,0.00,,---,0.02,VWS V14.00,2013-03-23 21:32:00,
2013-03-23 16:37:00,42.8,41.7,29.74,East,89,0.0,0.0,96,0.00,,---,0.02,VWS V14.00,2013-03-23 21:37:00,
2013-03-23 16:43:00,42.8,41.7,29.73,East,88,0.0,0.0,96,0.00,,---,0.02,VWS V14.00,2013-03-23 21:43:00,
2013-03-23 16:48:00,42.9,41.8,29.73,NNE,30,4.0,4.0,96,0.00,,---,0.02,VWS V14.00,2013-03-23 21:48:00,
2013-03-23 16:53:00,42.7,41.6,29.73,NNE,29,0.0,0.0,96,0.00,,---,0.02,VWS V14.00,2013-03-23 21:53:00,
2013-03-23 16:58:00,42.7,41.6,29.73,NNE,30,0.0,0.0,96,0.00,,---,0.02,VWS V14.00,2013-03-23 21:58:00,
2013-03-23 17:04:00,42.6,41.5,29.73,NNE,25,0.0,0.0,96,0.00,,---,0.02,VWS V14.00,2013-03-23 22:04:00,
2013-03-23 17:09:00,42.6,41.5,29.73,North,6,0.0,3.0,96,0.00,,---,0.02,VWS V14.00,2013-03-23 22:09:00,
2013-03-23 17:14:00,42.6,41.5,29.72,NNE,15,0.0,0.0,96,0.00,,---,0.02,VWS V14.00,2013-03-23 22:14:00,
2013-03-23 17:19:00,42.6,41.5,29.72,NE,39,0.0,0.0,96,0.00,,---,0.02,VWS V14.00,2013-03-23 22:19:00,
2013-03-23 17:24:00,42.6,41.5,29.72,NE,39,0.0,0.0,96,0.00,,---,0.02,VWS V14.00,2013-03-23 22:24:00,
2013-03-23 17:29:00,42.7,41.6,29.72,NE,43,0.0,0.0,96,0.00,,---,0.02,VWS V14.00,2013-03-23 22:29:00,
2013-03-23 17:34:00,42.6,41.5,29.72,NNE,15,0.0,0.0,96,0.00,,---,0.02,VWS V14.00,2013-03-23 22:34:00,
2013-03-23 17:39:00,42.7,41.6,29.72,NNE,15,0.0,0.0,96,0.00,,---,0.02,VWS V14.00,2013-03-23 22:39:00,
2013-03-23 17:44:00,42.7,41.6,29.73,NNE,15,0.0,0.0,96,0.00,,---,0.02,VWS V14.00,2013-03-23 22:44:00,
2013-03-23 17:49:00,42.7,41.6,29.73,NNE,15,0.0,0.0,96,0.00,,---,0.02,VWS V14.00,2013-03-23 22:49:00,
2013-03-23 17:54:00,42.7,41.9,29.73,NNE,15,0.0,0.0,97,0.00,,---,0.02,VWS V14.00,2013-03-23 22:54:00,
2013-03-23 17:59:00,42.7,41.6,29.73,NNE,25,0.0,0.0,96,0.00,,---,0.02,VWS V14.00,2013-03-23 22:59:00,
2013-03-23 18:04:00,42.7,41.6,29.73,NNE,30,0.0,3.0,96,0.00,,---,0.02,VWS V14.00,2013-03-23 23:04:00,
2013-03-23 18:09:00,42.6,41.5,29.73,NNE,23,4.0,5.0,96,0.00,,---,0.02,VWS V14.00,2013-03-23 23:09:00,
2013-03-23 18:14:00,42.6,41.5,29.73,NE,44,4.0,5.0,96,0.00,,---,0.02,VWS V14.00,2013-03-23 23:14:00,
2013-03-23 18:19:00,42.6,41.5,29.73,NE,39,0.0,0.0,96,0.00,,---,0.02,VWS V14.00,2013-03-23 23:19:00,
2013-03-23 18:24:00,42.7,41.6,29.73,NE,35,0.0,0.0,96,0.00,,---,0.02,VWS V14.00,2013-03-23 23:24:00,
2013-03-23 18:29:00,42.6,41.5,29.74,NNE,25,4.0,4.0,96,0.00,,---,0.02,VWS V14.00,2013-03-23 23:29:00,
2013-03-23 18:34:00,42.6,41.5,29.74,North,3,0.0,0.0,96,0.00,,---,0.02,VWS V14.00,2013-03-23 23:34:00,
2013-03-23 18:39:00,42.6,41.8,29.74,North,8,0.0,0.0,97,0.00,,---,0.02,VWS V14.00,2013-03-23 23:39:00,
2013-03-23 18:44:00,42.5,41.7,29.75,NNE,23,0.0,3.0,97,0.00,,---,0.02,VWS V14.00,2013-03-23 23:44:00,
2013-03-23 18:49:00,42.5,41.7,29.75,NNE,26,0.0,0.0,97,0.00,,---,0.02,VWS V14.00,2013-03-23 23:49:00,
2013-03-23 18:54:00,42.6,41.8,29.75,NNE,31,0.0,0.0,97,0.00,,---,0.02,VWS V14.00,2013-03-23 23:54:00,
2013-03-23 18:59:00,42.5,41.7,29.76,North,1,0.0,0.0,97,0.00,,---,0.02,VWS V14.00,2013-03-23 23:59:00,
2013-03-23 19:05:00,42.5,41.7,29.76,North,1,0.0,0.0,97,0.00,,---,0.02,VWS V14.00,2013-03-24 00:05:00,
2013-03-23 19:10:00,42.4,41.6,29.76,NNE,13,2.0,2.0,97,0.00,,---,0.02,VWS V14.00,2013-03-24 00:10:00,
2013-03-23 19:17:00,42.4,41.6,29.76,North,10,0.0,0.0,97,0.00,,---,0.02,VWS V14.00,2013-03-24 00:17:00,
2013-03-23 19:22:00,42.4,41.6,29.76,NNE,14,0.0,0.0,97,0.00,,---,0.02,VWS V14.00,2013-03-24 00:22:00,
2013-03-23 19:27:00,42.4,41.6,29.77,NNE,15,0.0,0.0,97,0.00,,---,0.02,VWS V14.00,2013-03-24 00:27:00,
2013-03-23 19:32:00,42.4,41.6,29.77,NNE,15,0.0,0.0,97,0.00,,---,0.02,VWS V14.00,2013-03-24 00:32:00,
2013-03-23 19:37:00,42.4,41.6,29.77,NNE,25,0.0,5.0,97,0.00,,---,0.02,VWS V14.00,2013-03-24 00:37:00,
2013-03-23 19:42:00,42.2,41.4,29.77,NNE,25,0.0,0.0,97,0.00,,---,0.02,VWS V14.00,2013-03-24 00:42:00,
2013-03-23 19:48:00,42.2,41.4,29.77,NNE,25,0.0,0.0,97,0.00,,---,0.02,VWS V14.00,2013-03-24 00:48:00,
2013-03-23 19:53:00,42.2,41.4,29.77,NNE,32,3.0,4.0,97,0.00,,---,0.02,VWS V14.00,2013-03-24 00:53:00,
2013-03-23 19:59:00,42.1,41.3,29.74,NE,44,0.0,0.0,97,0.01,,---,0.03,VWS V14.00,2013-03-24 00:59:00,
2013-03-23 20:04:00,42.1,41.3,29.74,NE,37,0.0,0.0,97,0.01,,---,0.03,VWS V14.00,2013-03-24 01:04:00,
2013-03-23 20:09:00,42.0,41.2,29.74,NNE,30,0.0,0.0,97,0.01,,---,0.03,VWS V14.00,2013-03-24 01:09:00,
2013-03-23 20:14:00,42.0,41.2,29.74,NE,49,4.0,6.0,97,0.01,,---,0.03,VWS V14.00,2013-03-24 01:14:00,
2013-03-23 20:19:00,42.0,41.2,29.74,NE,38,1.0,5.0,97,0.01,,---,0.03,VWS V14.00,2013-03-24 01:19:00,
2013-03-23 20:24:00,42.0,41.2,29.74,NE,43,2.0,6.0,97,0.01,,---,0.03,VWS V14.00,2013-03-24 01:24:00,
2013-03-23 20:29:00,42.0,41.2,29.73,NNE,21,2.0,4.0,97,0.01,,---,0.03,VWS V14.00,2013-03-24 01:29:00,
2013-03-23 20:34:00,42.0,41.2,29.73,NE,42,1.0,4.0,97,0.01,,---,0.03,VWS V14.00,2013-03-24 01:34:00,
2013-03-23 20:39:00,42.0,41.2,29.73,NE,34,0.0,0.0,97,0.01,,---,0.03,VWS V14.00,2013-03-24 01:39:00,
2013-03-23 20:44:00,42.0,41.2,29.73,NNE,15,0.0,3.0,97,0.01,,---,0.03,VWS V14.00,2013-03-24 01:44:00,
2013-03-23 20:49:00,42.0,41.2,29.73,NE,39,7.0,7.0,97,0.01,,---,0.03,VWS V14.00,2013-03-24 01:49:00,
2013-03-23 20:54:00,42.0,41.2,29.73,NNE,32,0.0,0.0,97,0.01,,---,0.03,VWS V14.00,2013-03-24 01:54:00,
2013-03-23 20:59:00,42.0,41.2,29.72,NNE,12,4.0,10.0,97,0.01,,---,0.03,VWS V14.00,2013-03-24 01:59:00,
2013-03-23 21:04:00,42.0,41.2,29.72,North,7,2.0,6.0,97,0.00,,---,0.03,VWS V14.00,2013-03-24 02:04:00,
2013-03-23 21:09:00,42.0,41.2,29.72,North,1,2.0,6.0,97,0.00,,---,0.03,VWS V14.00,2013-03-24 02:09:00,
2013-03-23 21:14:00,42.0,41.2,29.72,NNE,18,0.0,0.0,97,0.00,,---,0.03,VWS V14.00,2013-03-24 02:14:00,
2013-03-23 21:20:00,42.1,41.3,29.72,NNE,23,0.0,6.0,97,0.00,,---,0.03,VWS V14.00,2013-03-24 02:20:00,
2013-03-23 21:25:00,42.0,41.2,29.72,NNE,32,0.0,0.0,97,0.00,,---,0.03,VWS V14.00,2013-03-24 02:25:00,
2013-03-23 21:30:00,42.1,41.3,29.72,NNE,24,0.0,3.0,97,0.00,,---,0.03,VWS V14.00,2013-03-24 02:30:00,
2013-03-23 21:35:00,42.1,41.3,29.72,NNE,25,0.0,4.0,97,0.00,,---,0.03,VWS V14.00,2013-03-24 02:35:00,
2013-03-23 21:40:00,42.1,41.3,29.72,NNE,20,0.0,0.0,97,0.00,,---,0.03,VWS V14.00,2013-03-24 02:40:00,
2013-03-23 21:45:00,42.1,41.3,29.72,NNE,30,0.0,0.0,97,0.00,,---,0.03,VWS V14.00,2013-03-24 02:45:00,
2013-03-23 21:50:00,42.1,41.3,29.72,NNE,25,0.0,4.0,97,0.00,,---,0.03,VWS V14.00,2013-03-24 02:50:00,
2013-03-23 21:51:00,40.6,39.5,29.80,North,0,4.0,4.0,96,0.00,,---,0.03,VWS V14.00,2013-03-24 02:51:00,
2013-03-23 21:52:00,40.5,39.5,29.80,NW,322,5.0,6.0,96,0.00,,---,0.03,VWS V14.00,2013-03-24 02:52:00,
2013-03-23 21:53:00,40.4,39.3,29.80,NNE,13,3.0,11.0,96,0.00,,---,0.03,VWS V14.00,2013-03-24 02:53:00,
2013-03-23 21:54:00,40.4,39.3,29.80,NNE,13,0.0,5.0,96,0.00,,---,0.03,VWS V14.00,2013-03-24 02:54:00,
2013-03-23 21:55:00,42.1,41.3,29.74,NNE,27,0.0,0.0,97,0.00,,---,0.03,VWS V14.00,2013-03-24 02:55:00,
2013-03-23 21:56:00,40.2,39.2,29.80,NNW,328,0.0,4.0,96,0.00,,---,0.03,VWS V14.00,2013-03-24 02:56:00,
2013-03-23 21:57:00,40.2,39.2,29.80,NE,37,5.0,5.0,96,0.00,,---,0.03,VWS V14.00,2013-03-24 02:57:00,
2013-03-23 21:58:00,40.2,39.2,29.80,NE,39,9.0,10.0,96,0.00,,---,0.03,VWS V14.00,2013-03-24 02:58:00,
2013-03-23 21:59:00,40.1,39.0,29.80,NNE,20,6.0,9.0,96,0.00,,---,0.03,VWS V14.00,2013-03-24 02:59:00,
2013-03-23 22:00:00,42.2,41.4,29.74,NNE,27,0.0,0.0,97,0.00,,---,0.03,VWS V14.00,2013-03-24 03:00:00,
2013-03-23 22:01:00,40.1,39.0,29.77,NE,48,0.0,0.0,96,0.00,,---,0.03,VWS V14.00,2013-03-24 03:01:00,
2013-03-23 22:02:00,40.0,39.0,29.77,NE,48,0.0,0.0,96,0.00,,---,0.03,VWS V14.00,2013-03-24 03:02:00,
2013-03-23 22:03:00,40.0,39.0,29.77,North,6,1.0,7.0,96,0.00,,---,0.03,VWS V14.00,2013-03-24 03:03:00,
2013-03-23 22:04:00,40.0,39.0,29.77,North,6,0.0,3.0,96,0.00,,---,0.03,VWS V14.00,2013-03-24 03:04:00,
2013-03-23 22:05:00,42.2,41.1,29.74,NNE,27,0.0,0.0,96,0.00,,---,0.03,VWS V14.00,2013-03-24 03:05:00,
2013-03-23 22:06:00,40.0,39.0,29.77,NNW,335,0.0,5.0,96,0.00,,---,0.03,VWS V14.00,2013-03-24 03:06:00,
2013-03-23 22:07:00,40.0,39.0,29.77,North,353,0.0,0.0,96,0.00,,---,0.03,VWS V14.00,2013-03-24 03:07:00,
2013-03-23 22:08:00,40.0,39.0,29.77,North,359,2.0,6.0,96,0.00,,---,0.03,VWS V14.00,2013-03-24 03:08:00,
2013-03-23 22:09:00,39.9,38.8,29.77,North,359,0.0,2.0,96,0.00,,---,0.03,VWS V14.00,2013-03-24 03:09:00,
2013-03-23 22:10:00,42.3,41.2,29.77,NNE,32,0.0,0.0,96,0.00,,---,0.03,VWS V14.00,2013-03-24 03:10:00,
2013-03-23 22:11:00,39.8,38.8,29.77,NNW,331,0.0,0.0,96,0.00,,---,0.03,VWS V14.00,2013-03-24 03:11:00,
2013-03-23 22:12:00,39.8,38.8,29.77,NNW,331,0.0,0.0,96,0.00,,---,0.03,VWS V14.00,2013-03-24 03:12:00,
2013-03-23 22:13:00,39.7,38.7,29.77,WNW,286,0.0,7.0,96,0.00,,---,0.03,VWS V14.00,2013-03-24 03:13:00,
2013-03-23 22:14:00,39.7,38.7,29.77,WNW,289,0.0,3.0,96,0.00,,---,0.03,VWS V14.00,2013-03-24 03:14:00,
2013-03-23 22:15:00,39.6,38.6,29.82,WNW,293,0.0,4.0,96,0.00,,---,0.03,VWS V14.00,2013-03-24 03:15:00,
2013-03-23 22:16:00,39.6,38.6,29.82,NNW,345,0.0,4.0,96,0.00,,---,0.03,VWS V14.00,2013-03-24 03:16:00,
2013-03-23 22:17:00,42.3,41.5,29.77,NNE,33,0.0,0.0,97,0.00,,---,0.03,VWS V14.00,2013-03-24 03:17:00,
2013-03-23 22:18:00,39.5,38.5,29.82,NNW,330,4.0,4.0,96,0.00,,---,0.03,VWS V14.00,2013-03-24 03:18:00,
2013-03-23 22:19:00,39.4,38.4,29.82,NE,39,3.0,4.0,96,0.00,,---,0.03,VWS V14.00,2013-03-24 03:19:00,
2013-03-23 22:20:00,39.4,38.4,29.82,NNE,33,1.0,11.0,96,0.00,,---,0.03,VWS V14.00,2013-03-24 03:20:00,
2013-03-23 22:21:00,39.3,38.3,29.82,North,3,5.0,6.0,96,0.00,,---,0.03,VWS V14.00,2013-03-24 03:21:00,
2013-03-23 22:22:00,42.3,41.2,29.77,NE,35,0.0,0.0,96,0.00,,---,0.03,VWS V14.00,2013-03-24 03:22:00,
2013-03-23 22:23:00,39.1,38.1,29.82,NE,35,0.0,9.0,96,0.00,,---,0.03,VWS V14.00,2013-03-24 03:23:00,
2013-03-23 22:24:00,39.1,38.1,29.82,NNE,30,0.0,0.0,96,0.00,,---,0.03,VWS V14.00,2013-03-24 03:24:00,
2013-03-23 22:25:00,39.0,38.0,29.82,North,1,5.0,7.0,96,0.00,,---,0.03,VWS V14.00,2013-03-24 03:25:00,
2013-03-23 22:26:00,38.9,37.9,29.82,North,2,6.0,6.0,96,0.00,,---,0.03,VWS V14.00,2013-03-24 03:26:00,
2013-03-23 22:27:00,42.4,41.3,29.76,NE,35,0.0,0.0,96,0.00,,---,0.03,VWS V14.00,2013-03-24 03:27:00,
2013-03-23 22:28:00,38.8,37.8,29.82,NNE,23,5.0,12.0,96,0.00,,---,0.03,VWS V14.00,2013-03-24 03:28:00,
2013-03-23 22:29:00,38.8,37.8,29.82,North,6,0.0,12.0,96,0.00,,---,0.03,VWS V14.00,2013-03-24 03:29:00,
2013-03-23 22:30:00,38.7,37.7,29.75,NNE,26,10.0,13.0,96,0.00,,---,0.03,VWS V14.00,2013-03-24 03:30:00,
2013-03-23 22:31:00,38.7,37.7,29.75,NNE,18,0.0,11.0,96,0.00,,---,0.03,VWS V14.00,2013-03-24 03:31:00,
2013-03-23 22:32:00,42.4,41.3,29.76,NNE,31,0.0,0.0,96,0.00,,---,0.03,VWS V14.00,2013-03-24 03:32:00,
2013-03-23 22:33:00,38.6,37.6,29.75,NNE,32,14.0,17.0,96,0.00,,---,0.03,VWS V14.00,2013-03-24 03:33:00,
2013-03-23 22:36:00,38.4,37.4,29.75,NNW,341,3.0,10.0,96,0.00,,---,0.03,VWS V14.00,2013-03-24 03:36:00,
2013-03-23 22:37:00,42.4,41.3,29.76,NNE,25,0.0,0.0,96,0.00,,---,0.03,VWS V14.00,2013-03-24 03:37:00,
2013-03-23 22:38:00,38.3,37.3,29.75,WNW,300,0.0,11.0,96,0.00,,---,0.03,VWS V14.00,2013-03-24 03:38:00,
2013-03-23 22:42:00,42.4,41.3,29.79,NNE,22,0.0,0.0,96,0.00,,---,0.03,VWS V14.00,2013-03-24 03:42:00,
2013-03-23 22:45:00,38.3,37.3,29.81,NW,324,3.0,3.0,96,0.00,,---,0.03,VWS V14.00,2013-03-24 03:45:00,
2013-03-23 22:47:00,38.3,37.3,29.81,NNW,330,1.0,6.0,96,0.00,,---,0.03,VWS V14.00,2013-03-24 03:47:00,
2013-03-23 22:48:00,41.8,40.8,29.79,North,8,4.0,6.0,96,0.00,,---,0.03,VWS V14.00,2013-03-24 03:48:00,
2013-03-23 22:49:00,38.3,37.3,29.81,NW,309,2.0,2.0,96,0.00,,---,0.03,VWS V14.00,2013-03-24 03:49:00,
2013-03-23 22:51:00,38.3,37.3,29.81,NW,307,0.0,0.0,96,0.00,,---,0.03,VWS V14.00,2013-03-24 03:51:00,
2013-03-23 22:52:00,38.3,37.3,29.81,NNW,339,0.0,0.0,96,0.00,,---,0.03,VWS V14.00,2013-03-24 03:52:00,
2013-03-23 22:53:00,41.1,40.0,29.79,NNW,333,0.0,0.0,96,0.00,,---,0.03,VWS V14.00,2013-03-24 03:53:00,
2013-03-23 22:54:00,38.3,37.3,29.81,West,277,0.0,7.0,96,0.00,,---,0.03,VWS V14.00,2013-03-24 03:54:00,
2013-03-23 22:55:00,38.3,37.3,29.81,WNW,288,3.0,11.0,96,0.00,,---,0.03,VWS V14.00,2013-03-24 03:55:00,
2013-03-23 22:56:00,38.2,37.2,29.81,NW,307,4.0,4.0,96,0.00,,---,0.03,VWS V14.00,2013-03-24 03:56:00,
2013-03-23 22:58:00,40.8,39.8,29.80,North,359,0.0,2.0,96,0.00,,---,0.03,VWS V14.00,2013-03-24 03:58:00,
2013-03-23 23:00:00,38.1,37.1,29.82,NNW,327,0.0,0.0,96,0.01,,---,0.04,VWS V14.00,2013-03-24 04:00:00,
2013-03-23 23:01:00,38.0,37.0,29.82,NNW,333,0.0,3.0,96,0.01,,---,0.04,VWS V14.00,2013-03-24 04:01:00,
2013-03-23 23:02:00,38.0,37.0,29.82,NNW,334,0.0,0.0,96,0.01,,---,0.04,VWS V14.00,2013-03-24 04:02:00,
2013-03-23 23:03:00,38.0,37.0,29.82,NNW,334,0.0,0.0,96,0.01,,---,0.04,VWS V14.00,2013-03-24 04:03:00,
2013-03-23 23:04:00,38.1,37.1,29.82,NNW,331,4.0,7.0,96,0.01,,---,0.04,VWS V14.00,2013-03-24 04:04:00,
2013-03-23 23:06:00,38.0,37.0,29.82,NW,307,0.0,5.0,96,0.01,,---,0.04,VWS V14.00,2013-03-24 04:06:00,
2013-03-23 23:08:00,38.0,37.0,29.82,NNE,19,0.0,6.0,96,0.01,,---,0.04,VWS V14.00,2013-03-24 04:08:00,
2013-03-23 23:09:00,38.0,37.0,29.82,North,1,10.0,12.0,96,0.01,,---,0.04,VWS V14.00,2013-03-24 04:09:00,
2013-03-23 23:11:00,37.9,36.9,29.82,NNE,13,6.0,6.0,96,0.01,,---,0.04,VWS V14.00,2013-03-24 04:11:00,
2013-03-23 23:13:00,37.8,36.8,29.82,North,11,0.0,9.0,96,0.01,,---,0.04,VWS V14.00,2013-03-24 04:13:00,
2013-03-23 23:14:00,37.8,36.8,29.82,NNE,21,3.0,9.0,96,0.01,,---,0.04,VWS V14.00,2013-03-24 04:14:00,
2013-03-23 23:15:00,37.8,36.8,29.77,NNE,21,0.0,3.0,96,0.01,,---,0.04,VWS V14.00,2013-03-24 04:15:00,
2013-03-23 23:17:00,37.8,36.8,29.77,North,10,6.0,6.0,96,0.01,,---,0.04,VWS V14.00,2013-03-24 04:17:00,
2013-03-23 23:18:00,37.8,36.8,29.77,North,11,0.0,6.0,96,0.01,,---,0.04,VWS V14.00,2013-03-24 04:18:00,
2013-03-23 23:19:00,37.7,36.7,29.77,North,4,0.0,10.0,96,0.01,,---,0.04,VWS V14.00,2013-03-24 04:19:00,
2013-03-23 23:20:00,37.7,36.7,29.77,NNE,14,0.0,0.0,96,0.01,,---,0.04,VWS V14.00,2013-03-24 04:20:00,
2013-03-23 23:23:00,37.7,36.7,29.77,NE,39,10.0,10.0,96,0.01,,---,0.04,VWS V14.00,2013-03-24 04:23:00,
2013-03-23 23:26:00,37.6,36.6,29.77,North,1,0.0,0.0,96,0.01,,---,0.04,VWS V14.00,2013-03-24 04:26:00,
2013-03-23 23:27:00,37.6,36.6,29.77,North,1,0.0,0.0,96,0.01,,---,0.04,VWS V14.00,2013-03-24 04:27:00,
2013-03-23 23:28:00,37.6,36.6,29.77,North,3,0.0,5.0,96,0.01,,---,0.04,VWS V14.00,2013-03-24 04:28:00,
2013-03-23 23:30:00,37.6,36.6,29.77,North,5,0.0,0.0,96,0.01,,---,0.04,VWS V14.00,2013-03-24 04:30:00,
2013-03-23 23:31:00,37.6,36.6,29.77,North,1,7.0,11.0,96,0.01,,---,0.04,VWS V14.00,2013-03-24 04:31:00,
2013-03-23 23:32:00,37.6,36.6,29.77,NNE,14,3.0,7.0,96,0.01,,---,0.04,VWS V14.00,2013-03-24 04:32:00,
2013-03-23 23:33:00,37.6,36.6,29.77,NNE,15,0.0,4.0,96,0.01,,---,0.04,VWS V14.00,2013-03-24 04:33:00,
2013-03-23 23:36:00,37.5,36.5,29.77,NNE,24,0.0,5.0,96,0.01,,---,0.04,VWS V14.00,2013-03-24 04:36:00,
2013-03-23 23:43:00,37.5,36.5,29.77,North,0,0.0,0.0,96,0.01,,---,0.04,VWS V14.00,2013-03-24 04:43:00,
2013-03-23 23:44:00,38.5,37.5,29.75,NNW,337,0.0,14.0,96,0.00,,---,0.03,VWS V14.00,2013-03-24 04:44:00,
2013-03-23 23:49:00,38.3,37.3,29.75,NW,326,3.0,15.0,96,0.00,,---,0.03,VWS V14.00,2013-03-24 04:49:00,
2013-03-23 23:51:00,37.7,36.7,29.78,NW,307,0.0,0.0,96,0.01,,---,0.04,VWS V14.00,2013-03-24 04:51:00,
2013-03-23 23:53:00,37.7,36.7,29.78,North,356,0.0,0.0,96,0.01,,---,0.04,VWS V14.00,2013-03-24 04:53:00,
2013-03-23 23:54:00,38.3,37.3,29.75,North,359,2.0,6.0,96,0.00,,---,0.03,VWS V14.00,2013-03-24 04:54:00,